sensor_id;sensor_type;location;lat;lon;timestamp;P1;durP1;ratioP1;P2;durP2;ratioP2
13291;SDS011;6714;53.056;8.690;2023-04-25T00:02:14;6.67;;;3.00;;
13291;SDS011;6714;53.056;8.690;2023-04-25T00:04:56;8.70;;;3.23;;
13291;SDS011;6714;53.056;8.690;2023-04-25T00:07:39;8.67;;;2.47;;
13291;SDS011;6714;53.056;8.690;2023-04-25T00:10:22;8.60;;;3.23;;
13291;SDS011;6714;53.056;8.690;2023-04-25T00:13:05;3.90;;;2.37;;
13291;SDS011;6714;53.056;8.690;2023-04-25T00:15:48;7.73;;;2.63;;
13291;SDS011;6714;53.056;8.690;2023-04-25T00:18:30;5.37;;;2.37;;
13291;SDS011;6714;53.056;8.690;2023-04-25T00:21:13;4.33;;;2.70;;
13291;SDS011;6714;53.056;8.690;2023-04-25T00:23:58;11.73;;;3.57;;
13291;SDS011;6714;53.056;8.690;2023-04-25T00:26:40;7.93;;;2.90;;
13291;SDS011;6714;53.056;8.690;2023-04-25T00:29:24;8.30;;;3.27;;
13291;SDS011;6714;53.056;8.690;2023-04-25T00:32:06;9.33;;;3.03;;
13291;SDS011;6714;53.056;8.690;2023-04-25T00:34:48;9.20;;;3.37;;
13291;SDS011;6714;53.056;8.690;2023-04-25T00:37:30;11.77;;;3.03;;
13291;SDS011;6714;53.056;8.690;2023-04-25T00:40:12;11.97;;;3.50;;
13291;SDS011;6714;53.056;8.690;2023-04-25T00:42:55;12.23;;;3.53;;
13291;SDS011;6714;53.056;8.690;2023-04-25T00:45:38;11.30;;;3.67;;
13291;SDS011;6714;53.056;8.690;2023-04-25T00:48:21;8.67;;;3.37;;
13291;SDS011;6714;53.056;8.690;2023-04-25T00:51:03;15.37;;;4.20;;
13291;SDS011;6714;53.056;8.690;2023-04-25T00:53:46;13.97;;;4.03;;
13291;SDS011;6714;53.056;8.690;2023-04-25T00:56:29;11.30;;;3.80;;
13291;SDS011;6714;53.056;8.690;2023-04-25T00:59:11;11.43;;;3.97;;
13291;SDS011;6714;53.056;8.690;2023-04-25T01:01:55;8.03;;;3.47;;
13291;SDS011;6714;53.056;8.690;2023-04-25T01:04:38;8.57;;;3.00;;
13291;SDS011;6714;53.056;8.690;2023-04-25T01:07:20;7.13;;;3.00;;
13291;SDS011;6714;53.056;8.690;2023-04-25T01:10:03;10.63;;;3.90;;
13291;SDS011;6714;53.056;8.690;2023-04-25T01:12:46;12.20;;;3.93;;
13291;SDS011;6714;53.056;8.690;2023-04-25T01:15:28;14.23;;;4.07;;
13291;SDS011;6714;53.056;8.690;2023-04-25T01:18:12;13.73;;;4.20;;
13291;SDS011;6714;53.056;8.690;2023-04-25T01:20:54;17.20;;;4.83;;
13291;SDS011;6714;53.056;8.690;2023-04-25T01:23:38;13.00;;;3.97;;
13291;SDS011;6714;53.056;8.690;2023-04-25T01:26:20;9.37;;;3.03;;
13291;SDS011;6714;53.056;8.690;2023-04-25T01:29:03;8.37;;;3.57;;
13291;SDS011;6714;53.056;8.690;2023-04-25T01:31:46;12.77;;;3.97;;
13291;SDS011;6714;53.056;8.690;2023-04-25T01:34:28;12.80;;;4.00;;
13291;SDS011;6714;53.056;8.690;2023-04-25T01:37:10;9.07;;;3.50;;
13291;SDS011;6714;53.056;8.690;2023-04-25T01:39:54;14.27;;;4.07;;
13291;SDS011;6714;53.056;8.690;2023-04-25T01:42:37;10.70;;;3.73;;
13291;SDS011;6714;53.056;8.690;2023-04-25T01:45:19;11.53;;;4.00;;
13291;SDS011;6714;53.056;8.690;2023-04-25T01:48:02;11.13;;;3.70;;
13291;SDS011;6714;53.056;8.690;2023-04-25T01:50:44;9.73;;;3.67;;
13291;SDS011;6714;53.056;8.690;2023-04-25T01:53:26;12.77;;;3.80;;
13291;SDS011;6714;53.056;8.690;2023-04-25T01:56:10;10.97;;;3.80;;
13291;SDS011;6714;53.056;8.690;2023-04-25T01:58:52;11.00;;;3.60;;
13291;SDS011;6714;53.056;8.690;2023-04-25T02:01:35;12.40;;;3.80;;
13291;SDS011;6714;53.056;8.690;2023-04-25T02:04:17;8.53;;;3.60;;
13291;SDS011;6714;53.056;8.690;2023-04-25T02:06:59;10.77;;;3.73;;
13291;SDS011;6714;53.056;8.690;2023-04-25T02:09:42;12.03;;;3.67;;
13291;SDS011;6714;53.056;8.690;2023-04-25T02:12:25;14.33;;;4.33;;
13291;SDS011;6714;53.056;8.690;2023-04-25T02:15:07;10.40;;;3.40;;
13291;SDS011;6714;53.056;8.690;2023-04-25T02:17:50;8.57;;;3.43;;
13291;SDS011;6714;53.056;8.690;2023-04-25T02:20:33;5.47;;;2.80;;
13291;SDS011;6714;53.056;8.690;2023-04-25T02:23:16;12.40;;;3.50;;
13291;SDS011;6714;53.056;8.690;2023-04-25T02:25:59;9.80;;;3.17;;
13291;SDS011;6714;53.056;8.690;2023-04-25T02:28:42;7.43;;;3.13;;
13291;SDS011;6714;53.056;8.690;2023-04-25T02:31:24;10.20;;;3.20;;
13291;SDS011;6714;53.056;8.690;2023-04-25T02:34:07;12.60;;;3.87;;
13291;SDS011;6714;53.056;8.690;2023-04-25T02:36:49;9.53;;;4.07;;
13291;SDS011;6714;53.056;8.690;2023-04-25T02:39:31;10.23;;;4.10;;
13291;SDS011;6714;53.056;8.690;2023-04-25T02:42:13;9.40;;;3.37;;
13291;SDS011;6714;53.056;8.690;2023-04-25T02:44:57;12.63;;;3.97;;
13291;SDS011;6714;53.056;8.690;2023-04-25T02:47:39;10.17;;;3.73;;
13291;SDS011;6714;53.056;8.690;2023-04-25T02:50:21;10.03;;;3.50;;
13291;SDS011;6714;53.056;8.690;2023-04-25T02:53:03;12.37;;;3.97;;
13291;SDS011;6714;53.056;8.690;2023-04-25T02:55:45;9.83;;;3.70;;
13291;SDS011;6714;53.056;8.690;2023-04-25T02:58:27;8.57;;;3.50;;
13291;SDS011;6714;53.056;8.690;2023-04-25T03:01:11;10.33;;;3.30;;
13291;SDS011;6714;53.056;8.690;2023-04-25T03:03:53;13.10;;;3.60;;
13291;SDS011;6714;53.056;8.690;2023-04-25T03:06:35;6.07;;;3.00;;
13291;SDS011;6714;53.056;8.690;2023-04-25T03:09:17;11.73;;;4.00;;
13291;SDS011;6714;53.056;8.690;2023-04-25T03:12:00;8.13;;;3.40;;
13291;SDS011;6714;53.056;8.690;2023-04-25T03:14:42;8.90;;;3.17;;
13291;SDS011;6714;53.056;8.690;2023-04-25T03:17:25;10.57;;;3.67;;
13291;SDS011;6714;53.056;8.690;2023-04-25T03:20:08;12.43;;;4.00;;
13291;SDS011;6714;53.056;8.690;2023-04-25T03:22:50;11.30;;;3.60;;
13291;SDS011;6714;53.056;8.690;2023-04-25T03:25:33;9.97;;;3.63;;
13291;SDS011;6714;53.056;8.690;2023-04-25T03:28:15;8.00;;;3.10;;
13291;SDS011;6714;53.056;8.690;2023-04-25T03:30:57;8.27;;;3.20;;
13291;SDS011;6714;53.056;8.690;2023-04-25T03:33:40;11.87;;;3.33;;
13291;SDS011;6714;53.056;8.690;2023-04-25T03:36:23;9.10;;;3.33;;
13291;SDS011;6714;53.056;8.690;2023-04-25T03:39:05;8.97;;;3.50;;
13291;SDS011;6714;53.056;8.690;2023-04-25T03:41:47;9.73;;;3.60;;
13291;SDS011;6714;53.056;8.690;2023-04-25T03:44:29;11.73;;;4.17;;
13291;SDS011;6714;53.056;8.690;2023-04-25T03:47:11;10.73;;;3.37;;
13291;SDS011;6714;53.056;8.690;2023-04-25T03:49:55;6.20;;;2.70;;
13291;SDS011;6714;53.056;8.690;2023-04-25T03:52:37;12.73;;;3.63;;
13291;SDS011;6714;53.056;8.690;2023-04-25T03:55:19;8.47;;;3.20;;
13291;SDS011;6714;53.056;8.690;2023-04-25T03:58:01;8.53;;;3.07;;
13291;SDS011;6714;53.056;8.690;2023-04-25T04:00:44;11.03;;;3.57;;
13291;SDS011;6714;53.056;8.690;2023-04-25T04:03:26;9.67;;;3.20;;
13291;SDS011;6714;53.056;8.690;2023-04-25T04:06:10;10.47;;;3.80;;
13291;SDS011;6714;53.056;8.690;2023-04-25T04:08:53;8.90;;;3.43;;
13291;SDS011;6714;53.056;8.690;2023-04-25T04:11:35;8.47;;;3.40;;
13291;SDS011;6714;53.056;8.690;2023-04-25T04:14:18;9.77;;;3.20;;
13291;SDS011;6714;53.056;8.690;2023-04-25T04:17:00;8.07;;;3.10;;
13291;SDS011;6714;53.056;8.690;2023-04-25T04:19:43;9.07;;;3.43;;
13291;SDS011;6714;53.056;8.690;2023-04-25T04:22:26;8.77;;;2.63;;
13291;SDS011;6714;53.056;8.690;2023-04-25T04:25:08;9.33;;;3.00;;
13291;SDS011;6714;53.056;8.690;2023-04-25T04:27:51;7.80;;;3.40;;
13291;SDS011;6714;53.056;8.690;2023-04-25T04:30:34;12.27;;;3.30;;
13291;SDS011;6714;53.056;8.690;2023-04-25T04:33:17;10.47;;;3.10;;
13291;SDS011;6714;53.056;8.690;2023-04-25T04:36:00;10.90;;;3.10;;
13291;SDS011;6714;53.056;8.690;2023-04-25T04:38:44;10.57;;;3.13;;
13291;SDS011;6714;53.056;8.690;2023-04-25T04:41:26;8.70;;;3.10;;
13291;SDS011;6714;53.056;8.690;2023-04-25T04:44:08;7.60;;;3.23;;
13291;SDS011;6714;53.056;8.690;2023-04-25T04:46:51;9.33;;;3.30;;
13291;SDS011;6714;53.056;8.690;2023-04-25T04:49:33;13.27;;;3.83;;
13291;SDS011;6714;53.056;8.690;2023-04-25T04:52:16;8.20;;;3.00;;
13291;SDS011;6714;53.056;8.690;2023-04-25T04:55:00;9.37;;;2.90;;
13291;SDS011;6714;53.056;8.690;2023-04-25T04:57:42;11.40;;;3.37;;
13291;SDS011;6714;53.056;8.690;2023-04-25T05:00:24;11.13;;;3.23;;
13291;SDS011;6714;53.056;8.690;2023-04-25T05:03:07;12.97;;;3.70;;
13291;SDS011;6714;53.056;8.690;2023-04-25T05:05:49;6.37;;;2.63;;
13291;SDS011;6714;53.056;8.690;2023-04-25T05:08:31;7.77;;;3.00;;
13291;SDS011;6714;53.056;8.690;2023-04-25T05:11:15;9.60;;;3.10;;
13291;SDS011;6714;53.056;8.690;2023-04-25T05:13:57;8.53;;;3.07;;
13291;SDS011;6714;53.056;8.690;2023-04-25T05:16:39;11.67;;;3.07;;
13291;SDS011;6714;53.056;8.690;2023-04-25T05:19:22;10.20;;;3.07;;
13291;SDS011;6714;53.056;8.690;2023-04-25T05:22:04;8.27;;;2.93;;
13291;SDS011;6714;53.056;8.690;2023-04-25T05:24:47;7.43;;;2.97;;
13291;SDS011;6714;53.056;8.690;2023-04-25T05:27:32;8.13;;;3.00;;
13291;SDS011;6714;53.056;8.690;2023-04-25T05:30:15;8.10;;;3.10;;
13291;SDS011;6714;53.056;8.690;2023-04-25T05:32:57;10.53;;;3.43;;
13291;SDS011;6714;53.056;8.690;2023-04-25T05:35:39;9.63;;;3.07;;
13291;SDS011;6714;53.056;8.690;2023-04-25T05:38:21;9.67;;;2.57;;
13291;SDS011;6714;53.056;8.690;2023-04-25T05:41:04;6.43;;;2.67;;
13291;SDS011;6714;53.056;8.690;2023-04-25T05:43:48;6.10;;;2.33;;
13291;SDS011;6714;53.056;8.690;2023-04-25T05:46:30;9.90;;;3.23;;
13291;SDS011;6714;53.056;8.690;2023-04-25T05:49:13;6.93;;;2.40;;
13291;SDS011;6714;53.056;8.690;2023-04-25T05:51:55;8.57;;;2.90;;
13291;SDS011;6714;53.056;8.690;2023-04-25T05:54:37;7.10;;;2.60;;
13291;SDS011;6714;53.056;8.690;2023-04-25T05:57:20;6.90;;;2.87;;
13291;SDS011;6714;53.056;8.690;2023-04-25T06:00:06;5.60;;;2.90;;
13291;SDS011;6714;53.056;8.690;2023-04-25T06:02:49;4.97;;;2.27;;
13291;SDS011;6714;53.056;8.690;2023-04-25T06:05:34;5.33;;;2.67;;
13291;SDS011;6714;53.056;8.690;2023-04-25T06:08:16;6.47;;;2.60;;
13291;SDS011;6714;53.056;8.690;2023-04-25T06:10:59;5.07;;;2.40;;
13291;SDS011;6714;53.056;8.690;2023-04-25T06:13:41;7.80;;;2.70;;
13291;SDS011;6714;53.056;8.690;2023-04-25T06:16:25;6.77;;;2.50;;
13291;SDS011;6714;53.056;8.690;2023-04-25T06:19:07;7.07;;;2.70;;
13291;SDS011;6714;53.056;8.690;2023-04-25T06:21:50;7.23;;;2.50;;
13291;SDS011;6714;53.056;8.690;2023-04-25T06:24:33;7.43;;;2.70;;
13291;SDS011;6714;53.056;8.690;2023-04-25T06:27:15;5.97;;;2.50;;
13291;SDS011;6714;53.056;8.690;2023-04-25T06:29:57;8.53;;;2.33;;
13291;SDS011;6714;53.056;8.690;2023-04-25T06:32:41;4.43;;;2.30;;
13291;SDS011;6714;53.056;8.690;2023-04-25T06:35:23;8.33;;;2.73;;
13291;SDS011;6714;53.056;8.690;2023-04-25T06:38:08;8.17;;;2.73;;
13291;SDS011;6714;53.056;8.690;2023-04-25T06:40:51;7.03;;;2.20;;
13291;SDS011;6714;53.056;8.690;2023-04-25T06:43:33;4.63;;;2.30;;
13291;SDS011;6714;53.056;8.690;2023-04-25T06:46:16;7.23;;;2.53;;
13291;SDS011;6714;53.056;8.690;2023-04-25T06:49:00;5.63;;;2.30;;
13291;SDS011;6714;53.056;8.690;2023-04-25T06:51:50;10.63;;;2.67;;
13291;SDS011;6714;53.056;8.690;2023-04-25T06:54:32;5.83;;;2.27;;
13291;SDS011;6714;53.056;8.690;2023-04-25T06:57:15;4.63;;;2.20;;
13291;SDS011;6714;53.056;8.690;2023-04-25T06:59:57;6.00;;;2.30;;
13291;SDS011;6714;53.056;8.690;2023-04-25T07:02:40;4.90;;;2.20;;
13291;SDS011;6714;53.056;8.690;2023-04-25T07:05:25;4.27;;;1.83;;
13291;SDS011;6714;53.056;8.690;2023-04-25T07:08:07;5.10;;;2.03;;
13291;SDS011;6714;53.056;8.690;2023-04-25T07:10:51;5.90;;;2.13;;
13291;SDS011;6714;53.056;8.690;2023-04-25T07:13:33;7.00;;;2.53;;
13291;SDS011;6714;53.056;8.690;2023-04-25T07:16:16;6.83;;;2.10;;
13291;SDS011;6714;53.056;8.690;2023-04-25T07:18:58;5.43;;;1.80;;
13291;SDS011;6714;53.056;8.690;2023-04-25T07:21:42;3.33;;;1.93;;
13291;SDS011;6714;53.056;8.690;2023-04-25T07:24:25;7.00;;;2.60;;
13291;SDS011;6714;53.056;8.690;2023-04-25T07:27:09;5.73;;;1.90;;
13291;SDS011;6714;53.056;8.690;2023-04-25T07:29:51;3.97;;;2.20;;
13291;SDS011;6714;53.056;8.690;2023-04-25T07:32:34;7.90;;;2.30;;
13291;SDS011;6714;53.056;8.690;2023-04-25T07:35:17;5.73;;;2.00;;
13291;SDS011;6714;53.056;8.690;2023-04-25T07:38:01;4.57;;;2.00;;
13291;SDS011;6714;53.056;8.690;2023-04-25T07:40:43;5.30;;;1.87;;
13291;SDS011;6714;53.056;8.690;2023-04-25T07:43:25;5.83;;;2.10;;
13291;SDS011;6714;53.056;8.690;2023-04-25T07:46:08;4.03;;;1.53;;
13291;SDS011;6714;53.056;8.690;2023-04-25T07:48:51;4.57;;;2.00;;
13291;SDS011;6714;53.056;8.690;2023-04-25T07:51:33;6.97;;;2.53;;
13291;SDS011;6714;53.056;8.690;2023-04-25T07:54:18;6.37;;;2.30;;
13291;SDS011;6714;53.056;8.690;2023-04-25T07:57:00;6.27;;;2.10;;
13291;SDS011;6714;53.056;8.690;2023-04-25T07:59:43;5.73;;;2.20;;
13291;SDS011;6714;53.056;8.690;2023-04-25T08:02:26;7.57;;;1.80;;
13291;SDS011;6714;53.056;8.690;2023-04-25T08:05:08;7.17;;;2.10;;
13291;SDS011;6714;53.056;8.690;2023-04-25T08:07:56;4.13;;;1.70;;
13291;SDS011;6714;53.056;8.690;2023-04-25T08:10:40;4.43;;;1.77;;
13291;SDS011;6714;53.056;8.690;2023-04-25T08:13:23;5.47;;;1.90;;
13291;SDS011;6714;53.056;8.690;2023-04-25T08:16:05;6.83;;;1.80;;
13291;SDS011;6714;53.056;8.690;2023-04-25T08:18:48;4.57;;;1.80;;
13291;SDS011;6714;53.056;8.690;2023-04-25T08:21:31;6.57;;;2.10;;
13291;SDS011;6714;53.056;8.690;2023-04-25T08:24:13;8.00;;;2.27;;
13291;SDS011;6714;53.056;8.690;2023-04-25T08:26:57;3.30;;;1.30;;
13291;SDS011;6714;53.056;8.690;2023-04-25T08:29:41;6.13;;;1.80;;
13291;SDS011;6714;53.056;8.690;2023-04-25T08:32:24;6.70;;;1.77;;
13291;SDS011;6714;53.056;8.690;2023-04-25T08:35:07;5.47;;;1.63;;
13291;SDS011;6714;53.056;8.690;2023-04-25T08:37:50;3.57;;;1.63;;
13291;SDS011;6714;53.056;8.690;2023-04-25T08:40:32;6.53;;;1.70;;
13291;SDS011;6714;53.056;8.690;2023-04-25T08:43:19;3.33;;;1.80;;
13291;SDS011;6714;53.056;8.690;2023-04-25T08:46:02;4.07;;;1.57;;
13291;SDS011;6714;53.056;8.690;2023-04-25T08:48:46;2.27;;;1.40;;
13291;SDS011;6714;53.056;8.690;2023-04-25T08:51:30;3.17;;;1.53;;
13291;SDS011;6714;53.056;8.690;2023-04-25T08:54:14;2.53;;;1.20;;
13291;SDS011;6714;53.056;8.690;2023-04-25T08:56:57;3.43;;;1.50;;
13291;SDS011;6714;53.056;8.690;2023-04-25T08:59:43;6.50;;;1.57;;
13291;SDS011;6714;53.056;8.690;2023-04-25T09:02:26;4.97;;;1.60;;
13291;SDS011;6714;53.056;8.690;2023-04-25T09:05:13;3.17;;;1.63;;
13291;SDS011;6714;53.056;8.690;2023-04-25T09:07:59;2.73;;;1.50;;
13291;SDS011;6714;53.056;8.690;2023-04-25T09:10:49;2.67;;;1.30;;
13291;SDS011;6714;53.056;8.690;2023-04-25T09:13:31;4.73;;;1.80;;
13291;SDS011;6714;53.056;8.690;2023-04-25T09:16:16;2.53;;;1.50;;
13291;SDS011;6714;53.056;8.690;2023-04-25T09:19:01;3.87;;;1.40;;
13291;SDS011;6714;53.056;8.690;2023-04-25T09:21:44;4.93;;;1.87;;
13291;SDS011;6714;53.056;8.690;2023-04-25T09:24:30;3.57;;;1.30;;
13291;SDS011;6714;53.056;8.690;2023-04-25T09:27:13;4.30;;;1.53;;
13291;SDS011;6714;53.056;8.690;2023-04-25T09:29:59;4.10;;;1.30;;
13291;SDS011;6714;53.056;8.690;2023-04-25T09:32:43;6.63;;;1.40;;
13291;SDS011;6714;53.056;8.690;2023-04-25T09:35:27;5.43;;;1.27;;
13291;SDS011;6714;53.056;8.690;2023-04-25T09:38:09;5.37;;;1.27;;
13291;SDS011;6714;53.056;8.690;2023-04-25T09:40:53;4.20;;;1.13;;
13291;SDS011;6714;53.056;8.690;2023-04-25T09:43:35;4.63;;;1.40;;
13291;SDS011;6714;53.056;8.690;2023-04-25T09:46:18;4.00;;;1.23;;
13291;SDS011;6714;53.056;8.690;2023-04-25T09:49:05;3.23;;;1.20;;
13291;SDS011;6714;53.056;8.690;2023-04-25T09:51:53;3.87;;;1.10;;
13291;SDS011;6714;53.056;8.690;2023-04-25T09:54:37;3.40;;;1.47;;
13291;SDS011;6714;53.056;8.690;2023-04-25T09:57:21;3.27;;;1.27;;
13291;SDS011;6714;53.056;8.690;2023-04-25T10:00:04;4.97;;;1.40;;
13291;SDS011;6714;53.056;8.690;2023-04-25T10:02:52;3.10;;;1.30;;
13291;SDS011;6714;53.056;8.690;2023-04-25T10:05:37;3.90;;;1.40;;
13291;SDS011;6714;53.056;8.690;2023-04-25T10:08:21;4.60;;;1.60;;
13291;SDS011;6714;53.056;8.690;2023-04-25T10:11:09;3.73;;;1.60;;
13291;SDS011;6714;53.056;8.690;2023-04-25T10:13:54;4.03;;;1.47;;
13291;SDS011;6714;53.056;8.690;2023-04-25T10:16:37;2.50;;;1.03;;
13291;SDS011;6714;53.056;8.690;2023-04-25T10:19:20;3.50;;;1.30;;
13291;SDS011;6714;53.056;8.690;2023-04-25T10:22:11;1.90;;;1.13;;
13291;SDS011;6714;53.056;8.690;2023-04-25T10:24:57;2.57;;;1.20;;
13291;SDS011;6714;53.056;8.690;2023-04-25T10:27:44;3.17;;;1.20;;
13291;SDS011;6714;53.056;8.690;2023-04-25T10:30:26;2.87;;;1.30;;
13291;SDS011;6714;53.056;8.690;2023-04-25T10:33:16;3.33;;;1.17;;
13291;SDS011;6714;53.056;8.690;2023-04-25T10:36:10;4.20;;;1.20;;
13291;SDS011;6714;53.056;8.690;2023-04-25T10:38:55;2.93;;;1.40;;
13291;SDS011;6714;53.056;8.690;2023-04-25T10:41:45;2.17;;;1.33;;
13291;SDS011;6714;53.056;8.690;2023-04-25T10:44:29;4.40;;;1.30;;
13291;SDS011;6714;53.056;8.690;2023-04-25T10:47:12;2.63;;;1.30;;
13291;SDS011;6714;53.056;8.690;2023-04-25T10:49:54;3.00;;;1.30;;
13291;SDS011;6714;53.056;8.690;2023-04-25T10:52:38;5.47;;;1.60;;
13291;SDS011;6714;53.056;8.690;2023-04-25T10:55:23;2.63;;;1.20;;
13291;SDS011;6714;53.056;8.690;2023-04-25T10:58:06;3.93;;;1.40;;
13291;SDS011;6714;53.056;8.690;2023-04-25T11:00:49;3.87;;;1.40;;
13291;SDS011;6714;53.056;8.690;2023-04-25T11:03:31;4.03;;;1.13;;
13291;SDS011;6714;53.056;8.690;2023-04-25T11:06:17;3.33;;;1.20;;
13291;SDS011;6714;53.056;8.690;2023-04-25T11:09:03;2.90;;;1.23;;
13291;SDS011;6714;53.056;8.690;2023-04-25T11:11:55;2.63;;;1.10;;
13291;SDS011;6714;53.056;8.690;2023-04-25T11:14:38;2.93;;;1.20;;
13291;SDS011;6714;53.056;8.690;2023-04-25T11:17:20;2.27;;;1.10;;
13291;SDS011;6714;53.056;8.690;2023-04-25T11:20:03;3.40;;;1.47;;
13291;SDS011;6714;53.056;8.690;2023-04-25T11:22:51;2.43;;;1.20;;
13291;SDS011;6714;53.056;8.690;2023-04-25T11:25:33;5.20;;;1.30;;
13291;SDS011;6714;53.056;8.690;2023-04-25T11:28:20;3.63;;;1.40;;
13291;SDS011;6714;53.056;8.690;2023-04-25T11:31:05;4.57;;;1.40;;
13291;SDS011;6714;53.056;8.690;2023-04-25T11:33:49;1.93;;;1.13;;
13291;SDS011;6714;53.056;8.690;2023-04-25T11:36:32;3.90;;;1.50;;
13291;SDS011;6714;53.056;8.690;2023-04-25T11:39:14;2.23;;;1.40;;
13291;SDS011;6714;53.056;8.690;2023-04-25T11:41:56;3.70;;;1.40;;
13291;SDS011;6714;53.056;8.690;2023-04-25T11:44:41;2.73;;;1.40;;
13291;SDS011;6714;53.056;8.690;2023-04-25T11:47:27;2.53;;;1.30;;
13291;SDS011;6714;53.056;8.690;2023-04-25T11:50:09;2.33;;;1.30;;
13291;SDS011;6714;53.056;8.690;2023-04-25T11:52:55;5.33;;;1.53;;
13291;SDS011;6714;53.056;8.690;2023-04-25T11:55:39;4.20;;;1.33;;
13291;SDS011;6714;53.056;8.690;2023-04-25T11:58:22;3.87;;;1.40;;
13291;SDS011;6714;53.056;8.690;2023-04-25T12:01:06;4.07;;;1.53;;
13291;SDS011;6714;53.056;8.690;2023-04-25T12:03:48;3.43;;;1.27;;
13291;SDS011;6714;53.056;8.690;2023-04-25T12:06:31;6.30;;;1.23;;
13291;SDS011;6714;53.056;8.690;2023-04-25T12:09:14;3.10;;;1.30;;
13291;SDS011;6714;53.056;8.690;2023-04-25T12:11:58;3.47;;;1.20;;
13291;SDS011;6714;53.056;8.690;2023-04-25T12:14:45;4.70;;;1.20;;
13291;SDS011;6714;53.056;8.690;2023-04-25T12:17:30;2.57;;;1.20;;
13291;SDS011;6714;53.056;8.690;2023-04-25T12:20:13;3.03;;;1.40;;
13291;SDS011;6714;53.056;8.690;2023-04-25T12:22:56;4.20;;;1.03;;
13291;SDS011;6714;53.056;8.690;2023-04-25T12:25:40;3.77;;;1.30;;
13291;SDS011;6714;53.056;8.690;2023-04-25T12:28:23;1.93;;;0.93;;
13291;SDS011;6714;53.056;8.690;2023-04-25T12:31:07;4.00;;;1.30;;
13291;SDS011;6714;53.056;8.690;2023-04-25T12:33:52;3.97;;;1.33;;
13291;SDS011;6714;53.056;8.690;2023-04-25T12:36:34;3.43;;;1.30;;
13291;SDS011;6714;53.056;8.690;2023-04-25T12:39:17;2.53;;;1.17;;
13291;SDS011;6714;53.056;8.690;2023-04-25T12:42:01;1.50;;;1.17;;
13291;SDS011;6714;53.056;8.690;2023-04-25T12:44:44;2.50;;;1.47;;
13291;SDS011;6714;53.056;8.690;2023-04-25T12:47:27;1.80;;;1.00;;
13291;SDS011;6714;53.056;8.690;2023-04-25T12:50:11;2.63;;;1.30;;
13291;SDS011;6714;53.056;8.690;2023-04-25T12:52:54;2.33;;;1.30;;
13291;SDS011;6714;53.056;8.690;2023-04-25T12:55:36;2.20;;;1.53;;
13291;SDS011;6714;53.056;8.690;2023-04-25T12:58:19;3.37;;;1.37;;
13291;SDS011;6714;53.056;8.690;2023-04-25T13:01:01;3.40;;;1.50;;
13291;SDS011;6714;53.056;8.690;2023-04-25T13:03:45;2.63;;;1.20;;
13291;SDS011;6714;53.056;8.690;2023-04-25T13:06:30;2.20;;;1.23;;
13291;SDS011;6714;53.056;8.690;2023-04-25T13:09:12;2.30;;;1.00;;
13291;SDS011;6714;53.056;8.690;2023-04-25T13:11:55;3.07;;;1.53;;
13291;SDS011;6714;53.056;8.690;2023-04-25T13:14:39;2.27;;;1.20;;
13291;SDS011;6714;53.056;8.690;2023-04-25T13:17:21;2.37;;;1.30;;
13291;SDS011;6714;53.056;8.690;2023-04-25T13:20:04;3.57;;;1.20;;
13291;SDS011;6714;53.056;8.690;2023-04-25T13:22:50;3.33;;;1.13;;
13291;SDS011;6714;53.056;8.690;2023-04-25T13:25:32;2.43;;;1.20;;
13291;SDS011;6714;53.056;8.690;2023-04-25T13:28:15;1.77;;;1.40;;
13291;SDS011;6714;53.056;8.690;2023-04-25T13:30:57;1.37;;;1.13;;
13291;SDS011;6714;53.056;8.690;2023-04-25T13:33:40;4.03;;;1.17;;
13291;SDS011;6714;53.056;8.690;2023-04-25T13:36:22;1.80;;;1.03;;
13291;SDS011;6714;53.056;8.690;2023-04-25T13:39:06;1.80;;;1.10;;
13291;SDS011;6714;53.056;8.690;2023-04-25T13:41:49;3.17;;;1.07;;
13291;SDS011;6714;53.056;8.690;2023-04-25T13:44:32;2.90;;;1.30;;
13291;SDS011;6714;53.056;8.690;2023-04-25T13:47:14;2.87;;;1.10;;
13291;SDS011;6714;53.056;8.690;2023-04-25T13:49:56;2.53;;;1.03;;
13291;SDS011;6714;53.056;8.690;2023-04-25T13:52:42;3.27;;;0.90;;
13291;SDS011;6714;53.056;8.690;2023-04-25T13:55:27;2.03;;;1.07;;
13291;SDS011;6714;53.056;8.690;2023-04-25T13:58:10;1.03;;;0.83;;
13291;SDS011;6714;53.056;8.690;2023-04-25T14:00:53;1.90;;;0.80;;
13291;SDS011;6714;53.056;8.690;2023-04-25T14:03:36;1.23;;;1.00;;
13291;SDS011;6714;53.056;8.690;2023-04-25T14:06:18;1.73;;;1.13;;
13291;SDS011;6714;53.056;8.690;2023-04-25T14:09:04;1.70;;;0.90;;
13291;SDS011;6714;53.056;8.690;2023-04-25T14:11:48;2.30;;;1.30;;
13291;SDS011;6714;53.056;8.690;2023-04-25T14:14:31;2.53;;;1.20;;
13291;SDS011;6714;53.056;8.690;2023-04-25T14:17:13;2.63;;;1.17;;
13291;SDS011;6714;53.056;8.690;2023-04-25T14:19:56;1.77;;;1.10;;
13291;SDS011;6714;53.056;8.690;2023-04-25T14:22:38;2.60;;;1.10;;
13291;SDS011;6714;53.056;8.690;2023-04-25T14:25:23;2.87;;;1.20;;
13291;SDS011;6714;53.056;8.690;2023-04-25T14:28:08;1.70;;;1.10;;
13291;SDS011;6714;53.056;8.690;2023-04-25T14:30:51;3.90;;;1.30;;
13291;SDS011;6714;53.056;8.690;2023-04-25T14:33:34;2.87;;;1.33;;
13291;SDS011;6714;53.056;8.690;2023-04-25T14:36:19;3.13;;;1.20;;
13291;SDS011;6714;53.056;8.690;2023-04-25T14:39:02;3.47;;;1.30;;
13291;SDS011;6714;53.056;8.690;2023-04-25T14:41:45;2.57;;;1.10;;
13291;SDS011;6714;53.056;8.690;2023-04-25T14:44:30;2.07;;;1.13;;
13291;SDS011;6714;53.056;8.690;2023-04-25T14:47:12;3.70;;;1.60;;
13291;SDS011;6714;53.056;8.690;2023-04-25T14:49:56;3.33;;;1.30;;
13291;SDS011;6714;53.056;8.690;2023-04-25T14:52:39;4.93;;;1.40;;
13291;SDS011;6714;53.056;8.690;2023-04-25T14:55:23;4.53;;;1.37;;
13291;SDS011;6714;53.056;8.690;2023-04-25T14:58:05;2.60;;;1.30;;
13291;SDS011;6714;53.056;8.690;2023-04-25T15:00:50;3.63;;;1.47;;
13291;SDS011;6714;53.056;8.690;2023-04-25T15:03:33;3.53;;;1.37;;
13291;SDS011;6714;53.056;8.690;2023-04-25T15:06:16;2.93;;;1.10;;
13291;SDS011;6714;53.056;8.690;2023-04-25T15:08:59;2.27;;;1.20;;
13291;SDS011;6714;53.056;8.690;2023-04-25T15:11:41;2.47;;;1.40;;
13291;SDS011;6714;53.056;8.690;2023-04-25T15:14:23;4.77;;;1.50;;
13291;SDS011;6714;53.056;8.690;2023-04-25T15:17:08;3.07;;;1.47;;
13291;SDS011;6714;53.056;8.690;2023-04-25T15:19:52;4.17;;;1.30;;
13291;SDS011;6714;53.056;8.690;2023-04-25T15:22:35;2.83;;;1.47;;
13291;SDS011;6714;53.056;8.690;2023-04-25T15:25:17;2.97;;;1.20;;
13291;SDS011;6714;53.056;8.690;2023-04-25T15:28:00;2.47;;;1.33;;
13291;SDS011;6714;53.056;8.690;2023-04-25T15:30:42;2.87;;;1.43;;
13291;SDS011;6714;53.056;8.690;2023-04-25T15:33:27;4.17;;;1.43;;
13291;SDS011;6714;53.056;8.690;2023-04-25T15:36:10;2.97;;;1.33;;
13291;SDS011;6714;53.056;8.690;2023-04-25T15:38:52;2.80;;;1.30;;
13291;SDS011;6714;53.056;8.690;2023-04-25T15:41:35;5.00;;;1.27;;
13291;SDS011;6714;53.056;8.690;2023-04-25T15:44:18;4.10;;;1.10;;
13291;SDS011;6714;53.056;8.690;2023-04-25T15:47:01;2.10;;;1.33;;
13291;SDS011;6714;53.056;8.690;2023-04-25T15:49:45;3.23;;;1.40;;
13291;SDS011;6714;53.056;8.690;2023-04-25T15:52:28;4.27;;;1.47;;
13291;SDS011;6714;53.056;8.690;2023-04-25T15:55:13;3.00;;;1.30;;
13291;SDS011;6714;53.056;8.690;2023-04-25T15:57:56;4.37;;;1.60;;
13291;SDS011;6714;53.056;8.690;2023-04-25T16:00:39;2.10;;;1.23;;
13291;SDS011;6714;53.056;8.690;2023-04-25T16:03:22;4.80;;;1.70;;
13291;SDS011;6714;53.056;8.690;2023-04-25T16:06:07;6.17;;;1.50;;
13291;SDS011;6714;53.056;8.690;2023-04-25T16:08:49;3.13;;;1.27;;
13291;SDS011;6714;53.056;8.690;2023-04-25T16:11:32;4.37;;;1.40;;
13291;SDS011;6714;53.056;8.690;2023-04-25T16:14:15;3.73;;;1.33;;
13291;SDS011;6714;53.056;8.690;2023-04-25T16:16:57;3.63;;;1.57;;
13291;SDS011;6714;53.056;8.690;2023-04-25T16:19:41;4.13;;;1.40;;
13291;SDS011;6714;53.056;8.690;2023-04-25T16:22:25;2.57;;;1.50;;
13291;SDS011;6714;53.056;8.690;2023-04-25T16:25:09;2.90;;;1.40;;
13291;SDS011;6714;53.056;8.690;2023-04-25T16:27:52;3.00;;;1.57;;
13291;SDS011;6714;53.056;8.690;2023-04-25T16:30:34;3.37;;;1.27;;
13291;SDS011;6714;53.056;8.690;2023-04-25T16:33:17;3.23;;;1.30;;
13291;SDS011;6714;53.056;8.690;2023-04-25T16:35:59;4.43;;;1.57;;
13291;SDS011;6714;53.056;8.690;2023-04-25T16:38:44;3.03;;;1.27;;